sensor_id;sensor_type;location;lat;lon;timestamp;P1;durP1;ratioP1;P2;durP2;ratioP2
80503;SDS011;69825;51.190;6.808;2023-06-10T00:01:31;2.65;;;2.45;;
80503;SDS011;69825;51.190;6.808;2023-06-10T00:03:56;2.50;;;2.30;;
80503;SDS011;69825;51.190;6.808;2023-06-10T00:06:22;2.53;;;2.33;;
80503;SDS011;69825;51.190;6.808;2023-06-10T00:08:49;2.80;;;2.60;;
80503;SDS011;69825;51.190;6.808;2023-06-10T00:11:15;2.35;;;2.15;;
80503;SDS011;69825;51.190;6.808;2023-06-10T00:13:40;2.40;;;2.20;;
80503;SDS011;69825;51.190;6.808;2023-06-10T00:16:06;2.85;;;2.63;;
80503;SDS011;69825;51.190;6.808;2023-06-10T00:18:31;2.42;;;2.22;;
80503;SDS011;69825;51.190;6.808;2023-06-10T00:20:57;2.40;;;2.20;;
80503;SDS011;69825;51.190;6.808;2023-06-10T00:23:30;2.65;;;2.45;;
80503;SDS011;69825;51.190;6.808;2023-06-10T00:26:03;2.58;;;2.38;;
80503;SDS011;69825;51.190;6.808;2023-06-10T00:28:28;2.97;;;2.13;;
80503;SDS011;69825;51.190;6.808;2023-06-10T00:30:54;2.92;;;2.17;;
80503;SDS011;69825;51.190;6.808;2023-06-10T00:33:19;2.60;;;2.40;;
80503;SDS011;69825;51.190;6.808;2023-06-10T00:35:44;2.67;;;2.47;;
80503;SDS011;69825;51.190;6.808;2023-06-10T00:38:10;2.45;;;2.25;;
80503;SDS011;69825;51.190;6.808;2023-06-10T00:40:38;2.90;;;2.70;;
80503;SDS011;69825;51.190;6.808;2023-06-10T00:43:05;2.30;;;2.10;;
80503;SDS011;69825;51.190;6.808;2023-06-10T00:45:31;2.38;;;2.17;;
80503;SDS011;69825;51.190;6.808;2023-06-10T00:47:56;2.40;;;2.20;;
80503;SDS011;69825;51.190;6.808;2023-06-10T00:50:22;2.85;;;2.42;;
80503;SDS011;69825;51.190;6.808;2023-06-10T00:52:47;2.58;;;2.38;;
80503;SDS011;69825;51.190;6.808;2023-06-10T00:55:14;2.20;;;2.10;;
80503;SDS011;69825;51.190;6.808;2023-06-10T00:57:41;2.80;;;2.55;;
80503;SDS011;69825;51.190;6.808;2023-06-10T01:00:09;2.33;;;2.13;;
80503;SDS011;69825;51.190;6.808;2023-06-10T01:02:35;2.47;;;2.28;;
80503;SDS011;69825;51.190;6.808;2023-06-10T01:05:01;2.20;;;2.10;;
80503;SDS011;69825;51.190;6.808;2023-06-10T01:07:37;2.17;;;2.08;;
80503;SDS011;69825;51.190;6.808;2023-06-10T01:10:24;2.72;;;2.53;;
80503;SDS011;69825;51.190;6.808;2023-06-10T01:12:59;2.20;;;2.10;;
80503;SDS011;69825;51.190;6.808;2023-06-10T01:15:27;2.20;;;2.10;;
80503;SDS011;69825;51.190;6.808;2023-06-10T01:17:55;2.22;;;2.03;;
80503;SDS011;69825;51.190;6.808;2023-06-10T01:20:23;2.58;;;2.38;;
80503;SDS011;69825;51.190;6.808;2023-06-10T01:22:49;2.20;;;2.10;;
80503;SDS011;69825;51.190;6.808;2023-06-10T01:25:15;2.45;;;2.30;;
80503;SDS011;69825;51.190;6.808;2023-06-10T01:27:42;2.50;;;2.30;;
80503;SDS011;69825;51.190;6.808;2023-06-10T01:30:12;2.30;;;2.20;;
80503;SDS011;69825;51.190;6.808;2023-06-10T01:32:44;2.28;;;2.15;;
80503;SDS011;69825;51.190;6.808;2023-06-10T01:35:12;2.50;;;2.30;;
80503;SDS011;69825;51.190;6.808;2023-06-10T01:37:39;2.50;;;2.30;;
80503;SDS011;69825;51.190;6.808;2023-06-10T01:40:08;2.42;;;2.22;;
80503;SDS011;69825;51.190;6.808;2023-06-10T01:42:34;2.10;;;2.00;;
80503;SDS011;69825;51.190;6.808;2023-06-10T01:44:59;2.50;;;2.30;;
80503;SDS011;69825;51.190;6.808;2023-06-10T01:47:25;2.10;;;2.00;;
80503;SDS011;69825;51.190;6.808;2023-06-10T01:49:50;2.40;;;2.20;;
80503;SDS011;69825;51.190;6.808;2023-06-10T01:52:15;2.30;;;2.20;;
80503;SDS011;69825;51.190;6.808;2023-06-10T01:54:41;2.35;;;2.22;;
80503;SDS011;69825;51.190;6.808;2023-06-10T01:57:07;2.20;;;2.10;;
80503;SDS011;69825;51.190;6.808;2023-06-10T01:59:33;2.30;;;2.20;;
80503;SDS011;69825;51.190;6.808;2023-06-10T02:01:58;2.45;;;2.25;;
80503;SDS011;69825;51.190;6.808;2023-06-10T02:04:24;2.55;;;2.35;;
80503;SDS011;69825;51.190;6.808;2023-06-10T02:06:49;2.15;;;2.05;;
80503;SDS011;69825;51.190;6.808;2023-06-10T02:09:15;2.50;;;2.30;;
80503;SDS011;69825;51.190;6.808;2023-06-10T02:11:41;2.35;;;2.20;;
80503;SDS011;69825;51.190;6.808;2023-06-10T02:14:06;2.45;;;2.25;;
80503;SDS011;69825;51.190;6.808;2023-06-10T02:16:31;2.85;;;2.22;;
80503;SDS011;69825;51.190;6.808;2023-06-10T02:18:57;2.40;;;2.20;;
80503;SDS011;69825;51.190;6.808;2023-06-10T02:21:22;1.95;;;1.85;;
80503;SDS011;69825;51.190;6.808;2023-06-10T02:23:48;2.22;;;2.13;;
80503;SDS011;69825;51.190;6.808;2023-06-10T02:26:13;2.00;;;1.90;;
80503;SDS011;69825;51.190;6.808;2023-06-10T02:28:42;2.47;;;2.28;;
80503;SDS011;69825;51.190;6.808;2023-06-10T02:31:07;2.17;;;2.08;;
80503;SDS011;69825;51.190;6.808;2023-06-10T02:33:33;2.15;;;2.05;;
80503;SDS011;69825;51.190;6.808;2023-06-10T02:35:58;2.45;;;2.35;;
80503;SDS011;69825;51.190;6.808;2023-06-10T02:38:24;2.03;;;1.92;;
80503;SDS011;69825;51.190;6.808;2023-06-10T02:40:49;2.20;;;2.10;;
80503;SDS011;69825;51.190;6.808;2023-06-10T02:43:15;2.40;;;2.20;;
80503;SDS011;69825;51.190;6.808;2023-06-10T02:45:40;2.25;;;2.15;;
80503;SDS011;69825;51.190;6.808;2023-06-10T02:48:05;2.50;;;2.30;;
80503;SDS011;69825;51.190;6.808;2023-06-10T02:50:31;2.08;;;1.98;;
80503;SDS011;69825;51.190;6.808;2023-06-10T02:52:56;2.33;;;2.22;;
80503;SDS011;69825;51.190;6.808;2023-06-10T02:55:21;2.17;;;2.08;;
80503;SDS011;69825;51.190;6.808;2023-06-10T02:57:47;1.88;;;1.77;;
80503;SDS011;69825;51.190;6.808;2023-06-10T03:00:12;2.20;;;2.10;;
80503;SDS011;69825;51.190;6.808;2023-06-10T03:02:39;2.08;;;1.98;;
80503;SDS011;69825;51.190;6.808;2023-06-10T03:05:05;2.17;;;2.08;;
80503;SDS011;69825;51.190;6.808;2023-06-10T03:07:34;2.13;;;2.03;;
80503;SDS011;69825;51.190;6.808;2023-06-10T03:10:00;1.98;;;1.80;;
80503;SDS011;69825;51.190;6.808;2023-06-10T03:12:26;2.03;;;1.92;;
80503;SDS011;69825;51.190;6.808;2023-06-10T03:14:51;2.15;;;2.05;;
80503;SDS011;69825;51.190;6.808;2023-06-10T03:17:16;2.65;;;2.17;;
80503;SDS011;69825;51.190;6.808;2023-06-10T03:19:42;2.20;;;2.10;;
80503;SDS011;69825;51.190;6.808;2023-06-10T03:22:08;2.40;;;2.20;;
80503;SDS011;69825;51.190;6.808;2023-06-10T03:24:34;2.35;;;2.20;;
80503;SDS011;69825;51.190;6.808;2023-06-10T03:27:01;2.40;;;2.20;;
80503;SDS011;69825;51.190;6.808;2023-06-10T03:29:26;1.95;;;1.85;;
80503;SDS011;69825;51.190;6.808;2023-06-10T03:31:52;2.40;;;2.20;;
80503;SDS011;69825;51.190;6.808;2023-06-10T03:34:18;2.20;;;2.10;;
80503;SDS011;69825;51.190;6.808;2023-06-10T03:36:43;2.47;;;2.25;;
80503;SDS011;69825;51.190;6.808;2023-06-10T03:39:08;2.08;;;1.90;;
80503;SDS011;69825;51.190;6.808;2023-06-10T03:41:34;2.38;;;2.28;;
80503;SDS011;69825;51.190;6.808;2023-06-10T03:43:59;1.98;;;1.88;;
80503;SDS011;69825;51.190;6.808;2023-06-10T03:46:25;2.13;;;2.03;;
80503;SDS011;69825;51.190;6.808;2023-06-10T03:48:50;1.95;;;1.85;;
80503;SDS011;69825;51.190;6.808;2023-06-10T03:51:16;2.30;;;2.20;;
80503;SDS011;69825;51.190;6.808;2023-06-10T03:53:41;2.08;;;1.98;;
80503;SDS011;69825;51.190;6.808;2023-06-10T03:56:06;2.05;;;1.95;;
80503;SDS011;69825;51.190;6.808;2023-06-10T03:58:32;2.30;;;2.10;;
80503;SDS011;69825;51.190;6.808;2023-06-10T04:00:57;2.20;;;2.10;;
80503;SDS011;69825;51.190;6.808;2023-06-10T04:03:23;1.90;;;1.80;;
80503;SDS011;69825;51.190;6.808;2023-06-10T04:05:48;2.20;;;2.10;;
80503;SDS011;69825;51.190;6.808;2023-06-10T04:08:15;2.35;;;2.20;;
80503;SDS011;69825;51.190;6.808;2023-06-10T04:10:40;1.98;;;1.88;;
80503;SDS011;69825;51.190;6.808;2023-06-10T04:13:06;2.00;;;1.90;;
80503;SDS011;69825;51.190;6.808;2023-06-10T04:15:31;1.90;;;1.80;;
80503;SDS011;69825;51.190;6.808;2023-06-10T04:17:59;2.40;;;2.30;;
80503;SDS011;69825;51.190;6.808;2023-06-10T04:20:26;2.15;;;2.03;;
80503;SDS011;69825;51.190;6.808;2023-06-10T04:22:51;2.03;;;1.92;;
80503;SDS011;69825;51.190;6.808;2023-06-10T04:25:17;2.10;;;2.00;;
80503;SDS011;69825;51.190;6.808;2023-06-10T04:27:42;2.22;;;2.13;;
80503;SDS011;69825;51.190;6.808;2023-06-10T04:30:08;2.00;;;1.90;;
80503;SDS011;69825;51.190;6.808;2023-06-10T04:32:34;2.10;;;2.00;;
80503;SDS011;69825;51.190;6.808;2023-06-10T04:34:59;2.42;;;2.30;;
80503;SDS011;69825;51.190;6.808;2023-06-10T04:37:25;2.08;;;1.98;;
80503;SDS011;69825;51.190;6.808;2023-06-10T04:39:50;1.95;;;1.85;;
80503;SDS011;69825;51.190;6.808;2023-06-10T04:42:31;1.90;;;1.80;;
80503;SDS011;69825;51.190;6.808;2023-06-10T04:44:56;2.10;;;2.00;;
80503;SDS011;69825;51.190;6.808;2023-06-10T04:47:22;2.08;;;1.98;;
80503;SDS011;69825;51.190;6.808;2023-06-10T04:49:47;1.90;;;1.80;;
80503;SDS011;69825;51.190;6.808;2023-06-10T04:52:13;2.00;;;1.90;;
80503;SDS011;69825;51.190;6.808;2023-06-10T04:54:39;2.30;;;2.10;;
80503;SDS011;69825;51.190;6.808;2023-06-10T04:57:04;1.98;;;1.88;;
80503;SDS011;69825;51.190;6.808;2023-06-10T04:59:31;2.45;;;2.25;;
80503;SDS011;69825;51.190;6.808;2023-06-10T05:01:56;1.92;;;1.83;;
80503;SDS011;69825;51.190;6.808;2023-06-10T05:04:22;2.03;;;1.92;;
80503;SDS011;69825;51.190;6.808;2023-06-10T05:06:47;2.00;;;1.90;;
80503;SDS011;69825;51.190;6.808;2023-06-10T05:09:12;2.10;;;2.00;;
80503;SDS011;69825;51.190;6.808;2023-06-10T05:11:38;1.98;;;1.88;;
80503;SDS011;69825;51.190;6.808;2023-06-10T05:14:03;1.83;;;1.73;;
80503;SDS011;69825;51.190;6.808;2023-06-10T05:16:29;1.90;;;1.80;;
80503;SDS011;69825;51.190;6.808;2023-06-10T05:18:54;1.77;;;1.67;;
80503;SDS011;69825;51.190;6.808;2023-06-10T05:21:19;2.05;;;1.95;;
80503;SDS011;69825;51.190;6.808;2023-06-10T05:23:45;2.25;;;2.15;;
80503;SDS011;69825;51.190;6.808;2023-06-10T05:26:11;1.90;;;1.80;;
80503;SDS011;69825;51.190;6.808;2023-06-10T05:28:36;2.05;;;1.95;;
80503;SDS011;69825;51.190;6.808;2023-06-10T05:31:02;2.10;;;2.00;;
80503;SDS011;69825;51.190;6.808;2023-06-10T05:33:27;2.05;;;1.95;;
80503;SDS011;69825;51.190;6.808;2023-06-10T05:35:53;1.80;;;1.70;;
80503;SDS011;69825;51.190;6.808;2023-06-10T05:38:18;1.92;;;1.83;;
80503;SDS011;69825;51.190;6.808;2023-06-10T05:40:43;2.05;;;1.95;;
80503;SDS011;69825;51.190;6.808;2023-06-10T05:43:09;1.95;;;1.85;;
80503;SDS011;69825;51.190;6.808;2023-06-10T05:45:35;2.00;;;1.90;;
80503;SDS011;69825;51.190;6.808;2023-06-10T05:48:01;2.35;;;2.25;;
80503;SDS011;69825;51.190;6.808;2023-06-10T05:50:27;1.52;;;1.42;;
80503;SDS011;69825;51.190;6.808;2023-06-10T05:52:52;1.95;;;1.85;;
80503;SDS011;69825;51.190;6.808;2023-06-10T05:55:19;1.90;;;1.80;;
80503;SDS011;69825;51.190;6.808;2023-06-10T05:57:45;1.90;;;1.80;;
80503;SDS011;69825;51.190;6.808;2023-06-10T06:00:10;1.92;;;1.83;;
80503;SDS011;69825;51.190;6.808;2023-06-10T06:02:36;1.90;;;1.80;;
80503;SDS011;69825;51.190;6.808;2023-06-10T06:05:01;2.08;;;1.98;;
80503;SDS011;69825;51.190;6.808;2023-06-10T06:07:27;2.00;;;1.90;;
80503;SDS011;69825;51.190;6.808;2023-06-10T06:09:52;1.85;;;1.75;;
80503;SDS011;69825;51.190;6.808;2023-06-10T06:12:17;2.40;;;2.20;;
80503;SDS011;69825;51.190;6.808;2023-06-10T06:14:43;1.80;;;1.70;;
80503;SDS011;69825;51.190;6.808;2023-06-10T06:17:09;2.00;;;1.90;;
80503;SDS011;69825;51.190;6.808;2023-06-10T06:19:35;2.20;;;2.10;;
80503;SDS011;69825;51.190;6.808;2023-06-10T06:22:00;2.00;;;1.90;;
80503;SDS011;69825;51.190;6.808;2023-06-10T06:24:26;1.88;;;1.77;;
80503;SDS011;69825;51.190;6.808;2023-06-10T06:26:51;1.90;;;1.80;;
80503;SDS011;69825;51.190;6.808;2023-06-10T06:29:16;2.05;;;1.95;;
80503;SDS011;69825;51.190;6.808;2023-06-10T06:31:43;2.03;;;1.92;;
80503;SDS011;69825;51.190;6.808;2023-06-10T06:34:08;1.98;;;1.88;;
80503;SDS011;69825;51.190;6.808;2023-06-10T06:36:33;1.95;;;1.85;;
80503;SDS011;69825;51.190;6.808;2023-06-10T06:38:58;1.80;;;1.70;;
80503;SDS011;69825;51.190;6.808;2023-06-10T06:41:27;1.80;;;1.70;;
80503;SDS011;69825;51.190;6.808;2023-06-10T06:43:53;2.00;;;1.90;;
80503;SDS011;69825;51.190;6.808;2023-06-10T06:46:19;1.88;;;1.77;;
80503;SDS011;69825;51.190;6.808;2023-06-10T06:48:44;1.77;;;1.67;;
80503;SDS011;69825;51.190;6.808;2023-06-10T06:51:10;1.80;;;1.70;;
80503;SDS011;69825;51.190;6.808;2023-06-10T06:53:35;2.00;;;1.90;;
80503;SDS011;69825;51.190;6.808;2023-06-10T06:56:01;2.33;;;1.95;;
80503;SDS011;69825;51.190;6.808;2023-06-10T06:58:27;2.00;;;1.90;;
80503;SDS011;69825;51.190;6.808;2023-06-10T07:00:53;1.77;;;1.67;;
80503;SDS011;69825;51.190;6.808;2023-06-10T07:03:18;1.90;;;1.80;;
80503;SDS011;69825;51.190;6.808;2023-06-10T07:05:43;1.95;;;1.85;;
80503;SDS011;69825;51.190;6.808;2023-06-10T07:08:09;1.90;;;1.80;;
80503;SDS011;69825;51.190;6.808;2023-06-10T07:10:34;2.00;;;1.90;;
80503;SDS011;69825;51.190;6.808;2023-06-10T07:12:59;1.90;;;1.80;;
80503;SDS011;69825;51.190;6.808;2023-06-10T07:15:25;1.80;;;1.70;;
80503;SDS011;69825;51.190;6.808;2023-06-10T07:17:50;1.80;;;1.70;;
80503;SDS011;69825;51.190;6.808;2023-06-10T07:20:16;1.83;;;1.73;;
80503;SDS011;69825;51.190;6.808;2023-06-10T07:22:41;2.03;;;1.92;;
80503;SDS011;69825;51.190;6.808;2023-06-10T07:25:07;2.80;;;1.90;;
80503;SDS011;69825;51.190;6.808;2023-06-10T07:27:33;1.77;;;1.67;;
80503;SDS011;69825;51.190;6.808;2023-06-10T07:29:58;1.85;;;1.75;;
80503;SDS011;69825;51.190;6.808;2023-06-10T07:32:25;2.08;;;1.98;;
80503;SDS011;69825;51.190;6.808;2023-06-10T07:34:51;2.13;;;2.03;;
80503;SDS011;69825;51.190;6.808;2023-06-10T07:37:16;2.13;;;1.98;;
80503;SDS011;69825;51.190;6.808;2023-06-10T07:39:42;2.10;;;2.00;;
80503;SDS011;69825;51.190;6.808;2023-06-10T07:42:08;1.77;;;1.67;;
80503;SDS011;69825;51.190;6.808;2023-06-10T07:44:33;1.92;;;1.83;;
80503;SDS011;69825;51.190;6.808;2023-06-10T07:46:59;2.00;;;1.90;;
80503;SDS011;69825;51.190;6.808;2023-06-10T07:49:24;2.10;;;2.00;;
80503;SDS011;69825;51.190;6.808;2023-06-10T07:51:50;2.40;;;2.20;;
80503;SDS011;69825;51.190;6.808;2023-06-10T07:54:15;2.25;;;2.05;;
80503;SDS011;69825;51.190;6.808;2023-06-10T07:56:41;1.88;;;1.77;;
80503;SDS011;69825;51.190;6.808;2023-06-10T07:59:06;2.25;;;2.15;;
80503;SDS011;69825;51.190;6.808;2023-06-10T08:01:31;2.15;;;2.05;;
80503;SDS011;69825;51.190;6.808;2023-06-10T08:03:58;2.10;;;2.00;;
80503;SDS011;69825;51.190;6.808;2023-06-10T08:06:23;2.00;;;1.90;;
80503;SDS011;69825;51.190;6.808;2023-06-10T08:08:48;2.05;;;1.95;;
80503;SDS011;69825;51.190;6.808;2023-06-10T08:11:14;2.00;;;1.90;;
80503;SDS011;69825;51.190;6.808;2023-06-10T08:13:39;2.15;;;1.95;;
80503;SDS011;69825;51.190;6.808;2023-06-10T08:16:05;2.08;;;1.98;;
80503;SDS011;69825;51.190;6.808;2023-06-10T08:18:30;2.25;;;2.15;;
80503;SDS011;69825;51.190;6.808;2023-06-10T08:20:56;2.13;;;2.03;;
80503;SDS011;69825;51.190;6.808;2023-06-10T08:23:21;2.55;;;2.20;;
80503;SDS011;69825;51.190;6.808;2023-06-10T08:25:46;2.78;;;2.33;;
80503;SDS011;69825;51.190;6.808;2023-06-10T08:28:12;2.47;;;2.28;;
80503;SDS011;69825;51.190;6.808;2023-06-10T08:30:37;4.80;;;2.38;;
80503;SDS011;69825;51.190;6.808;2023-06-10T08:33:02;2.70;;;2.33;;
80503;SDS011;69825;51.190;6.808;2023-06-10T08:35:28;2.95;;;2.33;;
80503;SDS011;69825;51.190;6.808;2023-06-10T08:37:53;2.45;;;2.25;;
80503;SDS011;69825;51.190;6.808;2023-06-10T08:40:19;2.55;;;2.35;;
80503;SDS011;69825;51.190;6.808;2023-06-10T08:45:32;2.60;;;2.40;;
80503;SDS011;69825;51.190;6.808;2023-06-10T08:48:00;2.50;;;2.30;;
80503;SDS011;69825;51.190;6.808;2023-06-10T08:50:31;3.25;;;2.70;;
80503;SDS011;69825;51.190;6.808;2023-06-10T08:52:59;2.47;;;2.22;;
80503;SDS011;69825;51.190;6.808;2023-06-10T08:55:30;3.28;;;2.20;;
80503;SDS011;69825;51.190;6.808;2023-06-10T08:57:58;3.10;;;2.60;;
80503;SDS011;69825;51.190;6.808;2023-06-10T09:00:24;2.65;;;2.45;;
80503;SDS011;69825;51.190;6.808;2023-06-10T09:02:51;2.47;;;2.28;;
80503;SDS011;69825;51.190;6.808;2023-06-10T09:05:17;4.13;;;2.85;;
80503;SDS011;69825;51.190;6.808;2023-06-10T09:07:45;2.47;;;2.28;;
80503;SDS011;69825;51.190;6.808;2023-06-10T09:10:12;2.70;;;2.50;;
80503;SDS011;69825;51.190;6.808;2023-06-10T09:12:37;3.22;;;2.20;;
80503;SDS011;69825;51.190;6.808;2023-06-10T09:15:03;2.90;;;2.70;;
80503;SDS011;69825;51.190;6.808;2023-06-10T09:17:29;2.83;;;2.63;;
80503;SDS011;69825;51.190;6.808;2023-06-10T09:19:55;2.78;;;2.50;;
80503;SDS011;69825;51.190;6.808;2023-06-10T09:22:22;2.40;;;2.30;;
80503;SDS011;69825;51.190;6.808;2023-06-10T09:24:47;3.35;;;2.63;;
80503;SDS011;69825;51.190;6.808;2023-06-10T09:27:13;2.55;;;2.35;;
80503;SDS011;69825;51.190;6.808;2023-06-10T09:29:45;2.70;;;2.50;;
80503;SDS011;69825;51.190;6.808;2023-06-10T09:32:17;2.95;;;2.30;;
80503;SDS011;69825;51.190;6.808;2023-06-10T09:34:43;3.33;;;2.80;;
80503;SDS011;69825;51.190;6.808;2023-06-10T09:37:09;3.83;;;2.60;;
80503;SDS011;69825;51.190;6.808;2023-06-10T09:39:37;2.80;;;2.60;;
80503;SDS011;69825;51.190;6.808;2023-06-10T09:42:11;2.90;;;2.70;;
80503;SDS011;69825;51.190;6.808;2023-06-10T09:44:41;2.70;;;2.58;;
80503;SDS011;69825;51.190;6.808;2023-06-10T09:47:06;2.92;;;2.70;;
80503;SDS011;69825;51.190;6.808;2023-06-10T09:49:32;2.75;;;2.45;;
80503;SDS011;69825;51.190;6.808;2023-06-10T09:51:57;4.25;;;2.60;;
80503;SDS011;69825;51.190;6.808;2023-06-10T09:54:22;3.13;;;2.83;;
80503;SDS011;69825;51.190;6.808;2023-06-10T09:56:49;2.88;;;2.60;;
80503;SDS011;69825;51.190;6.808;2023-06-10T09:59:27;2.75;;;2.55;;
80503;SDS011;69825;51.190;6.808;2023-06-10T10:01:56;2.80;;;2.60;;
80503;SDS011;69825;51.190;6.808;2023-06-10T10:04:25;2.88;;;2.60;;
80503;SDS011;69825;51.190;6.808;2023-06-10T10:06:51;3.88;;;2.95;;
80503;SDS011;69825;51.190;6.808;2023-06-10T10:09:16;2.67;;;2.47;;
80503;SDS011;69825;51.190;6.808;2023-06-10T10:11:41;2.90;;;2.63;;
80503;SDS011;69825;51.190;6.808;2023-06-10T10:14:09;2.67;;;2.47;;
80503;SDS011;69825;51.190;6.808;2023-06-10T10:16:39;3.22;;;2.92;;
80503;SDS011;69825;51.190;6.808;2023-06-10T10:19:20;3.05;;;2.75;;
80503;SDS011;69825;51.190;6.808;2023-06-10T10:21:52;2.80;;;2.60;;
80503;SDS011;69825;51.190;6.808;2023-06-10T10:24:21;2.88;;;2.65;;
80503;SDS011;69825;51.190;6.808;2023-06-10T10:26:48;2.97;;;2.55;;
80503;SDS011;69825;51.190;6.808;2023-06-10T10:29:26;4.35;;;2.63;;
80503;SDS011;69825;51.190;6.808;2023-06-10T10:31:56;3.20;;;2.80;;
80503;SDS011;69825;51.190;6.808;2023-06-10T10:35:03;3.30;;;2.80;;
80503;SDS011;69825;51.190;6.808;2023-06-10T10:37:32;2.83;;;2.63;;
80503;SDS011;69825;51.190;6.808;2023-06-10T10:39:58;2.92;;;2.72;;
80503;SDS011;69825;51.190;6.808;2023-06-10T10:42:25;3.08;;;2.78;;
80503;SDS011;69825;51.190;6.808;2023-06-10T10:44:51;4.15;;;2.67;;
80503;SDS011;69825;51.190;6.808;2023-06-10T10:47:18;2.80;;;2.60;;
80503;SDS011;69825;51.190;6.808;2023-06-10T10:49:46;3.88;;;2.72;;
80503;SDS011;69825;51.190;6.808;2023-06-10T10:52:15;3.20;;;2.90;;
80503;SDS011;69825;51.190;6.808;2023-06-10T10:54:44;2.97;;;2.78;;
80503;SDS011;69825;51.190;6.808;2023-06-10T10:57:12;2.95;;;2.75;;
80503;SDS011;69825;51.190;6.808;2023-06-10T11:02:16;3.10;;;2.90;;
80503;SDS011;69825;51.190;6.808;2023-06-10T11:04:46;2.92;;;2.72;;
80503;SDS011;69825;51.190;6.808;2023-06-10T11:07:12;2.95;;;2.75;;
80503;SDS011;69825;51.190;6.808;2023-06-10T11:15:32;3.10;;;2.90;;
80503;SDS011;69825;51.190;6.808;2023-06-10T11:18:06;3.30;;;3.00;;
80503;SDS011;69825;51.190;6.808;2023-06-10T11:20:43;3.13;;;2.90;;
80503;SDS011;69825;51.190;6.808;2023-06-10T11:28:39;3.13;;;2.85;;
80503;SDS011;69825;51.190;6.808;2023-06-10T11:31:05;3.80;;;3.15;;
80503;SDS011;69825;51.190;6.808;2023-06-10T11:33:31;4.03;;;3.08;;
80503;SDS011;69825;51.190;6.808;2023-06-10T11:35:56;3.00;;;2.80;;
80503;SDS011;69825;51.190;6.808;2023-06-10T11:38:23;2.97;;;2.78;;
80503;SDS011;69825;51.190;6.808;2023-06-10T11:40:49;3.38;;;3.03;;
80503;SDS011;69825;51.190;6.808;2023-06-10T11:43:17;3.03;;;2.72;;
80503;SDS011;69825;51.190;6.808;2023-06-10T11:45:42;4.55;;;3.10;;
80503;SDS011;69825;51.190;6.808;2023-06-10T11:48:08;3.25;;;2.85;;
80503;SDS011;69825;51.190;6.808;2023-06-10T11:50:34;3.40;;;3.10;;
80503;SDS011;69825;51.190;6.808;2023-06-10T11:53:00;3.28;;;2.97;;
80503;SDS011;69825;51.190;6.808;2023-06-10T11:55:26;3.70;;;3.20;;
80503;SDS011;69825;51.190;6.808;2023-06-10T11:58:11;3.20;;;3.00;;
80503;SDS011;69825;51.190;6.808;2023-06-10T12:00:47;3.60;;;3.10;;
80503;SDS011;69825;51.190;6.808;2023-06-10T12:03:14;3.40;;;3.10;;
80503;SDS011;69825;51.190;6.808;2023-06-10T12:05:39;3.13;;;2.92;;
80503;SDS011;69825;51.190;6.808;2023-06-10T12:08:11;3.28;;;2.97;;
80503;SDS011;69825;51.190;6.808;2023-06-10T12:10:41;3.50;;;3.20;;
80503;SDS011;69825;51.190;6.808;2023-06-10T12:13:10;3.45;;;2.88;;
80503;SDS011;69825;51.190;6.808;2023-06-10T12:15:35;3.67;;;2.80;;
80503;SDS011;69825;51.190;6.808;2023-06-10T12:18:01;3.38;;;3.08;;
80503;SDS011;69825;51.190;6.808;2023-06-10T12:20:28;3.38;;;3.08;;
80503;SDS011;69825;51.190;6.808;2023-06-10T12:22:55;3.40;;;2.90;;
80503;SDS011;69825;51.190;6.808;2023-06-10T12:25:24;3.22;;;2.92;;
80503;SDS011;69825;51.190;6.808;2023-06-10T12:27:52;4.75;;;3.42;;
80503;SDS011;69825;51.190;6.808;2023-06-10T12:30:19;3.47;;;3.17;;
80503;SDS011;69825;51.190;6.808;2023-06-10T12:32:46;3.55;;;3.25;;
80503;SDS011;69825;51.190;6.808;2023-06-10T12:35:12;4.63;;;3.20;;
80503;SDS011;69825;51.190;6.808;2023-06-10T12:37:42;3.53;;;3.20;;
80503;SDS011;69825;51.190;6.808;2023-06-10T12:40:25;4.40;;;3.17;;
80503;SDS011;69825;51.190;6.808;2023-06-10T12:42:50;3.83;;;3.33;;
80503;SDS011;69825;51.190;6.808;2023-06-10T12:45:16;3.28;;;2.95;;
80503;SDS011;69825;51.190;6.808;2023-06-10T12:47:51;4.20;;;3.35;;
80503;SDS011;69825;51.190;6.808;2023-06-10T12:50:17;3.78;;;3.35;;
80503;SDS011;69825;51.190;6.808;2023-06-10T12:52:42;3.60;;;3.30;;
80503;SDS011;69825;51.190;6.808;2023-06-10T12:55:07;3.75;;;3.42;;
80503;SDS011;69825;51.190;6.808;2023-06-10T12:57:33;4.90;;;3.40;;
80503;SDS011;69825;51.190;6.808;2023-06-10T12:59:58;3.75;;;3.42;;
80503;SDS011;69825;51.190;6.808;2023-06-10T13:02:28;4.55;;;3.17;;
80503;SDS011;69825;51.190;6.808;2023-06-10T13:04:54;4.18;;;3.78;;
80503;SDS011;69825;51.190;6.808;2023-06-10T13:07:19;4.30;;;3.50;;
80503;SDS011;69825;51.190;6.808;2023-06-10T13:09:44;4.32;;;3.80;;
80503;SDS011;69825;51.190;6.808;2023-06-10T13:12:13;4.25;;;3.70;;
80503;SDS011;69825;51.190;6.808;2023-06-10T13:14:39;4.32;;;3.45;;
80503;SDS011;69825;51.190;6.808;2023-06-10T13:17:04;4.22;;;3.83;;
80503;SDS011;69825;51.190;6.808;2023-06-10T13:19:33;4.65;;;3.83;;
80503;SDS011;69825;51.190;6.808;2023-06-10T13:21:58;4.10;;;3.70;;
80503;SDS011;69825;51.190;6.808;2023-06-10T13:24:24;4.82;;;3.75;;
80503;SDS011;69825;51.190;6.808;2023-06-10T13:26:49;4.50;;;4.10;;
80503;SDS011;69825;51.190;6.808;2023-06-10T13:29:15;5.10;;;3.78;;
80503;SDS011;69825;51.190;6.808;2023-06-10T13:31:40;4.28;;;3.70;;
80503;SDS011;69825;51.190;6.808;2023-06-10T13:34:06;4.07;;;3.50;;
80503;SDS011;69825;51.190;6.808;2023-06-10T13:36:31;6.35;;;3.83;;
80503;SDS011;69825;51.190;6.808;2023-06-10T13:38:57;4.20;;;3.80;;
80503;SDS011;69825;51.190;6.808;2023-06-10T13:41:23;3.90;;;3.60;;
80503;SDS011;69825;51.190;6.808;2023-06-10T13:43:48;3.88;;;3.53;;
80503;SDS011;69825;51.190;6.808;2023-06-10T13:46:13;5.10;;;3.85;;
80503;SDS011;69825;51.190;6.808;2023-06-10T13:48:39;4.00;;;3.60;;
80503;SDS011;69825;51.190;6.808;2023-06-10T13:51:04;4.00;;;3.60;;
80503;SDS011;69825;51.190;6.808;2023-06-10T13:53:31;6.18;;;3.78;;
80503;SDS011;69825;51.190;6.808;2023-06-10T13:55:56;4.40;;;3.97;;
80503;SDS011;69825;51.190;6.808;2023-06-10T13:58:21;5.13;;;3.92;;
80503;SDS011;69825;51.190;6.808;2023-06-10T14:00:47;4.22;;;3.92;;
80503;SDS011;69825;51.190;6.808;2023-06-10T14:03:12;4.25;;;3.80;;
80503;SDS011;69825;51.190;6.808;2023-06-10T14:05:37;3.75;;;3.38;;
80503;SDS011;69825;51.190;6.808;2023-06-10T14:08:03;4.22;;;3.85;;
80503;SDS011;69825;51.190;6.808;2023-06-10T14:10:29;4.75;;;4.25;;
80503;SDS011;69825;51.190;6.808;2023-06-10T14:12:55;5.13;;;3.80;;
80503;SDS011;69825;51.190;6.808;2023-06-10T14:15:20;4.07;;;3.67;;
80503;SDS011;69825;51.190;6.808;2023-06-10T14:17:46;4.30;;;3.70;;
80503;SDS011;69825;51.190;6.808;2023-06-10T14:20:11;4.22;;;3.83;;
80503;SDS011;69825;51.190;6.808;2023-06-10T14:22:36;4.03;;;3.65;;
80503;SDS011;69825;51.190;6.808;2023-06-10T14:25:02;3.80;;;3.50;;
80503;SDS011;69825;51.190;6.808;2023-06-10T14:27:28;4.20;;;3.90;;
80503;SDS011;69825;51.190;6.808;2023-06-10T14:29:53;3.95;;;3.65;;
80503;SDS011;69825;51.190;6.808;2023-06-10T14:32:18;4.43;;;4.00;;
80503;SDS011;69825;51.190;6.808;2023-06-10T14:34:44;5.43;;;3.90;;
80503;SDS011;69825;51.190;6.808;2023-06-10T14:37:09;3.95;;;3.65;;
80503;SDS011;69825;51.190;6.808;2023-06-10T14:39:35;4.40;;;4.00;;
80503;SDS011;69825;51.190;6.808;2023-06-10T14:42:01;4.38;;;3.67;;
80503;SDS011;69825;51.190;6.808;2023-06-10T14:44:26;4.38;;;3.70;;
80503;SDS011;69825;51.190;6.808;2023-06-10T14:46:52;4.18;;;3.78;;
80503;SDS011;69825;51.190;6.808;2023-06-10T14:49:17;3.97;;;3.67;;
80503;SDS011;69825;51.190;6.808;2023-06-10T14:51:42;4.57;;;3.47;;
80503;SDS011;69825;51.190;6.808;2023-06-10T14:54:08;4.30;;;3.75;;
80503;SDS011;69825;51.190;6.808;2023-06-10T14:56:33;4.15;;;3.75;;
80503;SDS011;69825;51.190;6.808;2023-06-10T14:58:58;3.92;;;3.63;;
80503;SDS011;69825;51.190;6.808;2023-06-10T15:01:24;3.97;;;3.67;;